Time;durP1;ratioP1;P1;durP2;ratioP2;P2;SDS_P1;SDS_P2;PMS_P1;PMS_P2;Temp;Humidity;BMP_temperature;BMP_pressure;BME280_temperature;BME280_humidity;BME280_pressure;Samples;Min_cycle;Max_cycle;Signal;HPM_P1;HPM_P2
2023/12/25 00:01:11;;;;;;;5.95;1.00;;;;;;;;;;5134145;27;20031;-69
2023/12/25 00:03:36;;;;;;;4.25;1.33;;;;;;;;;;5134272;27;20476;-70
2023/12/25 00:06:02;;;;;;;2.45;1.05;;;;;;;;;;5134257;27;20359;-69
2023/12/25 00:08:27;;;;;;;5.75;1.85;;;;;;;;;;5134054;27;20027;-69
2023/12/25 00:10:53;;;;;;;5.82;2.13;;;;;;;;;;5133493;27;20050;-69
2023/12/25 00:13:18;;;;;;;4.45;1.50;;;;;;;;;;5115435;27;20027;-69
2023/12/25 00:15:43;;;;;;;5.30;1.50;;;;;;;;;;5134088;27;20141;-69
2023/12/25 00:18:09;;;;;;;4.18;1.20;;;;;;;;;;5133917;27;20409;-69
2023/12/25 00:20:34;;;;;;;6.75;1.70;;;;;;;;;;5133540;27;20461;-69
2023/12/25 00:23:00;;;;;;;2.92;1.13;;;;;;;;;;5133283;27;20027;-69
2023/12/25 00:25:25;;;;;;;6.68;1.30;;;;;;;;;;5133237;27;20072;-70
2023/12/25 00:27:51;;;;;;;7.07;1.33;;;;;;;;;;5133352;27;20047;-69
2023/12/25 00:30:16;;;;;;;3.83;1.00;;;;;;;;;;5133252;27;20136;-69
2023/12/25 00:32:42;;;;;;;2.97;1.27;;;;;;;;;;5133259;27;20026;-69
2023/12/25 00:35:07;;;;;;;5.95;1.90;;;;;;;;;;5133261;27;20026;-69
2023/12/25 00:37:33;;;;;;;5.18;1.27;;;;;;;;;;5133185;27;20331;-69
2023/12/25 00:39:58;;;;;;;3.80;1.33;;;;;;;;;;5133011;27;20023;-70
2023/12/25 00:42:23;;;;;;;6.53;1.25;;;;;;;;;;5132989;27;20026;-69
2023/12/25 00:44:49;;;;;;;3.85;0.93;;;;;;;;;;5132974;28;20015;-70
2023/12/25 00:47:15;;;;;;;7.20;1.67;;;;;;;;;;5132960;28;20032;-69
2023/12/25 00:49:40;;;;;;;3.40;0.90;;;;;;;;;;5133345;28;20015;-69
2023/12/25 00:52:06;;;;;;;3.88;1.00;;;;;;;;;;5132908;28;20050;-69
2023/12/25 00:54:31;;;;;;;4.57;0.90;;;;;;;;;;5132860;28;20022;-70
2023/12/25 00:56:58;;;;;;;2.72;0.95;;;;;;;;;;5133047;28;20026;-70
2023/12/25 00:59:24;;;;;;;7.03;1.08;;;;;;;;;;5133043;28;20106;-69
2023/12/25 01:01:49;;;;;;;4.32;1.02;;;;;;;;;;5132940;28;20062;-69
2023/12/25 01:04:15;;;;;;;4.70;1.27;;;;;;;;;;5132893;28;20064;-70
2023/12/25 01:06:40;;;;;;;1.67;0.75;;;;;;;;;;5133051;28;20023;-69
2023/12/25 01:09:06;;;;;;;1.45;0.88;;;;;;;;;;5132904;28;20449;-69
2023/12/25 01:11:31;;;;;;;1.98;0.80;;;;;;;;;;5132821;28;20023;-70
2023/12/25 01:13:56;;;;;;;3.22;0.90;;;;;;;;;;5133013;28;20054;-69
2023/12/25 01:16:23;;;;;;;2.55;1.00;;;;;;;;;;5132835;28;20073;-70
2023/12/25 01:18:49;;;;;;;3.30;1.05;;;;;;;;;;5132850;28;20020;-69
2023/12/25 01:21:15;;;;;;;4.13;1.55;;;;;;;;;;5132887;28;20035;-69
2023/12/25 01:23:40;;;;;;;1.90;1.02;;;;;;;;;;5134020;27;20055;-69
2023/12/25 01:26:06;;;;;;;4.47;1.13;;;;;;;;;;5137182;27;20114;-69
2023/12/25 01:28:31;;;;;;;5.45;1.00;;;;;;;;;;5137363;27;20025;-69
2023/12/25 01:30:56;;;;;;;6.10;1.17;;;;;;;;;;5137043;27;20023;-69
2023/12/25 01:33:22;;;;;;;3.78;1.15;;;;;;;;;;5137256;27;20114;-69
2023/12/25 01:35:47;;;;;;;1.75;0.90;;;;;;;;;;5137199;27;20061;-69
2023/12/25 01:38:13;;;;;;;3.60;0.90;;;;;;;;;;5136980;27;20023;-69
2023/12/25 01:40:43;;;;;;;2.58;0.88;;;;;;;;;;5136985;27;20030;-69
2023/12/25 01:43:09;;;;;;;5.20;1.00;;;;;;;;;;5136917;27;20606;-69
2023/12/25 01:45:35;;;;;;;2.00;0.80;;;;;;;;;;5136664;27;20303;-69
2023/12/25 01:48:00;;;;;;;6.05;1.33;;;;;;;;;;5136964;27;20364;-69
2023/12/25 01:50:27;;;;;;;6.05;1.10;;;;;;;;;;5136756;27;20043;-69
2023/12/25 01:52:54;;;;;;;4.80;1.48;;;;;;;;;;5136277;27;20051;-69
2023/12/25 01:55:19;;;;;;;3.38;0.95;;;;;;;;;;5136841;27;20047;-69
2023/12/25 01:57:45;;;;;;;5.32;1.08;;;;;;;;;;5136705;27;20023;-69
2023/12/25 02:00:10;;;;;;;6.65;1.27;;;;;;;;;;5136705;27;20503;-69
2023/12/25 02:02:36;;;;;;;5.00;1.23;;;;;;;;;;5136522;27;20031;-69
2023/12/25 02:05:02;;;;;;;2.97;1.00;;;;;;;;;;5136554;27;20070;-70
2023/12/25 02:07:27;;;;;;;6.53;1.38;;;;;;;;;;5136257;27;20435;-69
2023/12/25 02:09:52;;;;;;;5.35;0.98;;;;;;;;;;5136310;27;20055;-69
2023/12/25 02:12:18;;;;;;;4.93;1.45;;;;;;;;;;5136227;27;20050;-69
2023/12/25 02:14:44;;;;;;;5.53;1.42;;;;;;;;;;5136452;27;20025;-69
2023/12/25 02:17:10;;;;;;;5.05;1.23;;;;;;;;;;5136274;27;20054;-69
2023/12/25 02:19:43;;;;;;;5.25;1.20;;;;;;;;;;5136069;27;20019;-70
2023/12/25 02:22:09;;;;;;;3.15;0.80;;;;;;;;;;5136062;27;20020;-69
2023/12/25 02:24:48;;;;;;;2.15;0.90;;;;;;;;;;5117724;27;20016;-69
2023/12/25 02:27:14;;;;;;;2.70;0.90;;;;;;;;;;5136232;27;20031;-69
2023/12/25 02:29:39;;;;;;;3.03;1.02;;;;;;;;;;5136121;27;20022;-69
2023/12/25 02:32:05;;;;;;;5.50;1.02;;;;;;;;;;5135828;27;20058;-69
2023/12/25 02:34:30;;;;;;;5.90;1.15;;;;;;;;;;5117172;27;20366;-69
2023/12/25 02:36:55;;;;;;;8.35;1.15;;;;;;;;;;5135810;27;20014;-69
2023/12/25 02:39:21;;;;;;;5.95;1.55;;;;;;;;;;5135999;27;20377;-69
2023/12/25 02:41:46;;;;;;;4.85;1.38;;;;;;;;;;5135845;27;20019;-69
2023/12/25 02:44:12;;;;;;;4.50;1.05;;;;;;;;;;5135353;27;20098;-69
2023/12/25 02:46:37;;;;;;;2.15;1.00;;;;;;;;;;5135600;27;20132;-69
2023/12/25 02:49:02;;;;;;;5.85;1.08;;;;;;;;;;5135806;27;20019;-69
2023/12/25 02:51:28;;;;;;;4.00;1.15;;;;;;;;;;5135052;27;20027;-69
2023/12/25 02:53:53;;;;;;;3.50;0.90;;;;;;;;;;5135639;27;20552;-69
2023/12/25 02:56:19;;;;;;;2.80;1.10;;;;;;;;;;5135647;27;20026;-69
2023/12/25 02:58:44;;;;;;;5.22;1.15;;;;;;;;;;5135644;27;20042;-69
2023/12/25 03:01:10;;;;;;;4.63;1.25;;;;;;;;;;5135392;27;20079;-69
2023/12/25 03:03:35;;;;;;;4.80;1.20;;;;;;;;;;5135342;27;20465;-69
2023/12/25 03:06:00;;;;;;;8.80;1.35;;;;;;;;;;5135087;27;20030;-70
2023/12/25 03:08:26;;;;;;;3.40;0.90;;;;;;;;;;5135315;27;20033;-69
2023/12/25 03:10:51;;;;;;;3.45;1.00;;;;;;;;;;5135218;27;20117;-69
2023/12/25 03:13:17;;;;;;;3.85;1.35;;;;;;;;;;5135220;27;20484;-69
2023/12/25 03:15:42;;;;;;;4.65;1.13;;;;;;;;;;5135299;27;20085;-69
2023/12/25 03:18:07;;;;;;;4.75;1.20;;;;;;;;;;5135214;27;20051;-69
2023/12/25 03:20:33;;;;;;;5.13;1.05;;;;;;;;;;5134757;27;20011;-69
2023/12/25 03:22:58;;;;;;;5.85;1.20;;;;;;;;;;5134933;27;20488;-69
2023/12/25 03:25:24;;;;;;;5.60;1.45;;;;;;;;;;5135051;27;20030;-69
2023/12/25 03:27:49;;;;;;;5.05;1.67;;;;;;;;;;5135050;27;20019;-69
2023/12/25 03:30:15;;;;;;;2.63;1.23;;;;;;;;;;5134848;27;20020;-69
2023/12/25 03:32:40;;;;;;;5.50;1.38;;;;;;;;;;5134656;27;20058;-69
2023/12/25 03:35:06;;;;;;;3.28;1.02;;;;;;;;;;5134552;27;20430;-69
2023/12/25 03:37:31;;;;;;;3.80;1.13;;;;;;;;;;5134703;27;20027;-69
2023/12/25 03:39:59;;;;;;;4.80;1.23;;;;;;;;;;5134892;27;20051;-69
2023/12/25 03:42:25;;;;;;;4.97;1.10;;;;;;;;;;5134627;27;20035;-69
2023/12/25 03:44:50;;;;;;;5.93;1.05;;;;;;;;;;5134555;27;20025;-69
2023/12/25 03:47:15;;;;;;;3.67;1.00;;;;;;;;;;5133920;27;20027;-69
2023/12/25 03:49:41;;;;;;;3.83;0.77;;;;;;;;;;5134366;27;20015;-69
2023/12/25 03:52:06;;;;;;;3.55;1.10;;;;;;;;;;5133934;27;20517;-69
2023/12/25 03:54:32;;;;;;;5.30;1.48;;;;;;;;;;5134430;27;20068;-69
2023/12/25 03:56:57;;;;;;;4.82;1.08;;;;;;;;;;5134297;27;20023;-69
2023/12/25 03:59:23;;;;;;;5.03;1.60;;;;;;;;;;5134446;27;20027;-70
2023/12/25 04:01:48;;;;;;;2.80;0.88;;;;;;;;;;5134243;27;20084;-69
2023/12/25 04:04:14;;;;;;;6.32;1.48;;;;;;;;;;5133992;27;20532;-70
2023/12/25 04:06:39;;;;;;;6.28;1.00;;;;;;;;;;5134080;27;20031;-69
2023/12/25 04:09:05;;;;;;;4.85;1.40;;;;;;;;;;5134010;27;20023;-70
2023/12/25 04:11:30;;;;;;;1.88;1.00;;;;;;;;;;5133977;27;20026;-70
2023/12/25 04:13:56;;;;;;;5.53;1.10;;;;;;;;;;5134138;27;20412;-70
2023/12/25 04:16:22;;;;;;;5.35;1.33;;;;;;;;;;5134147;27;20019;-70
2023/12/25 04:18:48;;;;;;;5.30;1.23;;;;;;;;;;5133727;27;20119;-70
2023/12/25 04:21:28;;;;;;;3.42;1.10;;;;;;;;;;5133904;27;20027;-70
2023/12/25 04:23:55;;;;;;;3.70;1.00;;;;;;;;;;5133733;27;20027;-70
2023/12/25 04:26:21;;;;;;;6.88;1.40;;;;;;;;;;5133914;27;20030;-70
2023/12/25 04:28:48;;;;;;;5.50;1.13;;;;;;;;;;5133924;27;20027;-69
2023/12/25 04:31:14;;;;;;;5.30;1.00;;;;;;;;;;5133564;27;20027;-69
2023/12/25 04:33:40;;;;;;;6.47;1.55;;;;;;;;;;5133652;27;20027;-70
2023/12/25 04:36:08;;;;;;;1.45;0.70;;;;;;;;;;5133698;27;20027;-70
2023/12/25 04:38:35;;;;;;;3.60;1.02;;;;;;;;;;5114999;28;20019;-70
2023/12/25 04:41:00;;;;;;;6.70;1.05;;;;;;;;;;5133691;27;20416;-69
2023/12/25 04:43:26;;;;;;;7.13;1.30;;;;;;;;;;5115536;27;20019;-70
2023/12/25 04:45:51;;;;;;;1.58;0.70;;;;;;;;;;5133171;28;20030;-69
2023/12/25 04:48:17;;;;;;;4.68;1.13;;;;;;;;;;5133464;28;20034;-69
2023/12/25 04:50:43;;;;;;;6.63;1.20;;;;;;;;;;5133541;28;20023;-69
2023/12/25 04:53:09;;;;;;;3.88;0.90;;;;;;;;;;5133308;27;20039;-69
2023/12/25 04:55:34;;;;;;;2.53;1.10;;;;;;;;;;5133521;28;20035;-70
2023/12/25 04:57:59;;;;;;;6.78;1.30;;;;;;;;;;5135102;27;20045;-69
2023/12/25 05:00:25;;;;;;;3.20;1.00;;;;;;;;;;5137495;27;20027;-70
2023/12/25 05:02:50;;;;;;;5.03;1.25;;;;;;;;;;5137863;27;20027;-70
2023/12/25 05:05:16;;;;;;;3.85;0.88;;;;;;;;;;5137864;27;20381;-69
2023/12/25 05:07:41;;;;;;;2.85;0.68;;;;;;;;;;5137445;27;20019;-70
2023/12/25 05:10:07;;;;;;;2.50;0.90;;;;;;;;;;5137669;27;20027;-70
2023/12/25 05:12:33;;;;;;;4.45;1.00;;;;;;;;;;5137552;27;20027;-70
2023/12/25 05:14:58;;;;;;;2.83;0.98;;;;;;;;;;5137293;27;20015;-69
2023/12/25 05:17:24;;;;;;;2.28;0.98;;;;;;;;;;5137555;27;20381;-69
2023/12/25 05:19:50;;;;;;;2.97;1.65;;;;;;;;;;5137137;27;20026;-69
2023/12/25 05:22:15;;;;;;;6.38;1.20;;;;;;;;;;5118931;27;20024;-69
2023/12/25 05:24:41;;;;;;;4.88;0.90;;;;;;;;;;5137445;27;20111;-69
2023/12/25 05:27:07;;;;;;;4.78;1.50;;;;;;;;;;5137265;27;20027;-69
2023/12/25 05:29:32;;;;;;;4.53;1.10;;;;;;;;;;5137136;27;20465;-70
2023/12/25 05:31:58;;;;;;;5.38;1.10;;;;;;;;;;5137111;27;20058;-69
2023/12/25 05:34:23;;;;;;;5.47;1.20;;;;;;;;;;5137256;27;20446;-69
2023/12/25 05:36:49;;;;;;;6.78;1.20;;;;;;;;;;5137185;27;20107;-70
2023/12/25 05:39:14;;;;;;;4.57;1.15;;;;;;;;;;5136948;27;20023;-70
2023/12/25 05:41:41;;;;;;;2.92;1.10;;;;;;;;;;5137000;27;20055;-70
2023/12/25 05:44:06;;;;;;;7.70;1.40;;;;;;;;;;5136306;27;20534;-67
2023/12/25 05:46:32;;;;;;;4.68;1.20;;;;;;;;;;5136759;27;20031;-70
2023/12/25 05:48:57;;;;;;;1.77;0.98;;;;;;;;;;5136630;27;20330;-70
2023/12/25 05:51:23;;;;;;;3.13;1.38;;;;;;;;;;5136601;27;20029;-70
2023/12/25 05:53:48;;;;;;;4.60;1.02;;;;;;;;;;5136855;27;20091;-70
2023/12/25 05:56:14;;;;;;;2.45;0.73;;;;;;;;;;5136676;27;20027;-70
2023/12/25 05:58:40;;;;;;;2.70;0.90;;;;;;;;;;5136585;27;20036;-70
2023/12/25 06:01:08;;;;;;;4.15;1.00;;;;;;;;;;5136430;27;20034;-69
2023/12/25 06:03:34;;;;;;;2.75;1.00;;;;;;;;;;5136552;27;20027;-69
2023/12/25 06:05:59;;;;;;;3.72;1.40;;;;;;;;;;5136552;27;20096;-69
2023/12/25 06:08:25;;;;;;;4.03;1.10;;;;;;;;;;5136243;27;20019;-68
2023/12/25 06:10:50;;;;;;;9.80;2.17;;;;;;;;;;5135759;27;20023;-69
2023/12/25 06:13:16;;;;;;;2.10;0.95;;;;;;;;;;5136089;27;20035;-69
2023/12/25 06:15:41;;;;;;;4.63;1.33;;;;;;;;;;5136441;27;20019;-68
2023/12/25 06:18:07;;;;;;;3.90;1.10;;;;;;;;;;5136305;27;20023;-68
2023/12/25 06:20:32;;;;;;;5.18;1.20;;;;;;;;;;5136109;27;20205;-69
2023/12/25 06:22:57;;;;;;;3.38;1.00;;;;;;;;;;5136174;27;20031;-68
2023/12/25 06:25:23;;;;;;;4.32;1.23;;;;;;;;;;5136279;27;20171;-69
2023/12/25 06:27:48;;;;;;;2.40;1.02;;;;;;;;;;5136009;27;20387;-68
2023/12/25 06:30:14;;;;;;;3.63;1.00;;;;;;;;;;5136130;27;20475;-68
2023/12/25 06:32:41;;;;;;;3.58;1.20;;;;;;;;;;5135962;27;20359;-68
2023/12/25 06:35:07;;;;;;;2.53;1.00;;;;;;;;;;5135966;27;20034;-69
2023/12/25 06:37:32;;;;;;;6.32;1.45;;;;;;;;;;5135893;27;20027;-69
2023/12/25 06:39:58;;;;;;;4.25;0.95;;;;;;;;;;5135943;27;20051;-68
2023/12/25 06:42:23;;;;;;;7.75;1.20;;;;;;;;;;5135622;27;20023;-69
2023/12/25 06:44:49;;;;;;;4.40;1.27;;;;;;;;;;5135643;27;20035;-68
2023/12/25 06:47:14;;;;;;;3.03;0.80;;;;;;;;;;5135366;27;20725;-68
2023/12/25 06:49:39;;;;;;;5.72;1.33;;;;;;;;;;5135626;27;20072;-68
2023/12/25 06:52:05;;;;;;;5.60;1.15;;;;;;;;;;5135376;27;20043;-69
2023/12/25 06:54:31;;;;;;;5.13;0.82;;;;;;;;;;5135525;27;20054;-69
2023/12/25 06:56:56;;;;;;;2.25;0.90;;;;;;;;;;5135269;27;20187;-68
2023/12/25 06:59:22;;;;;;;8.98;1.48;;;;;;;;;;5135544;27;20102;-68
2023/12/25 07:01:47;;;;;;;4.68;1.42;;;;;;;;;;5135397;27;20048;-69
2023/12/25 07:04:13;;;;;;;6.93;1.52;;;;;;;;;;5135436;27;20038;-69
2023/12/25 07:06:40;;;;;;;5.35;1.50;;;;;;;;;;5135294;27;20369;-69
2023/12/25 07:09:05;;;;;;;4.57;1.23;;;;;;;;;;5135028;27;20026;-69
2023/12/25 07:11:31;;;;;;;7.65;1.13;;;;;;;;;;5134971;27;20027;-69
2023/12/25 07:13:57;;;;;;;6.18;1.33;;;;;;;;;;5135263;27;20027;-69
2023/12/25 07:16:23;;;;;;;4.03;1.05;;;;;;;;;;5135094;27;20030;-69
2023/12/25 07:18:50;;;;;;;6.35;1.17;;;;;;;;;;5134995;27;20031;-69
2023/12/25 07:21:16;;;;;;;6.03;1.20;;;;;;;;;;5133827;27;20076;-69
2023/12/25 07:23:41;;;;;;;6.60;1.25;;;;;;;;;;5135015;27;20354;-69
2023/12/25 07:26:07;;;;;;;5.22;1.38;;;;;;;;;;5134778;27;20031;-69
2023/12/25 07:28:33;;;;;;;5.88;1.20;;;;;;;;;;5134975;27;20026;-69
2023/12/25 07:30:59;;;;;;;5.95;1.27;;;;;;;;;;5134719;27;20068;-69
2023/12/25 07:33:25;;;;;;;4.43;1.65;;;;;;;;;;5134862;27;20038;-69
2023/12/25 07:35:50;;;;;;;4.45;1.13;;;;;;;;;;5134803;27;20019;-69
2023/12/25 07:38:16;;;;;;;5.65;1.17;;;;;;;;;;5134452;27;20476;-69
2023/12/25 07:40:41;;;;;;;4.95;1.08;;;;;;;;;;5134676;27;20030;-69
2023/12/25 07:43:09;;;;;;;6.82;1.75;;;;;;;;;;5134690;27;20035;-69
2023/12/25 07:45:35;;;;;;;6.03;1.23;;;;;;;;;;5134030;27;20152;-69
2023/12/25 07:48:01;;;;;;;3.50;1.10;;;;;;;;;;5134541;27;20076;-69
2023/12/25 07:50:26;;;;;;;6.13;1.55;;;;;;;;;;5134040;27;20034;-69
2023/12/25 07:52:51;;;;;;;6.07;1.42;;;;;;;;;;5134090;27;20079;-69
2023/12/25 07:55:17;;;;;;;9.88;1.40;;;;;;;;;;5134137;27;20110;-69
2023/12/25 07:57:42;;;;;;;13.07;3.08;;;;;;;;;;5134099;27;20104;-69
2023/12/25 08:00:08;;;;;;;9.45;2.03;;;;;;;;;;5134177;27;20106;-69
2023/12/25 08:02:33;;;;;;;9.20;1.92;;;;;;;;;;5134226;27;20114;-69
2023/12/25 08:04:59;;;;;;;13.10;2.08;;;;;;;;;;5134226;27;20465;-69
2023/12/25 08:07:24;;;;;;;5.68;1.40;;;;;;;;;;5132399;27;20491;-69
2023/12/25 08:09:50;;;;;;;6.47;1.20;;;;;;;;;;5130811;27;20032;-69
2023/12/25 08:12:15;;;;;;;4.63;1.42;;;;;;;;;;5113949;27;20028;-69
2023/12/25 08:14:41;;;;;;;7.22;1.45;;;;;;;;;;5123657;27;20071;-68
2023/12/25 08:17:07;;;;;;;7.18;1.80;;;;;;;;;;5126780;27;20039;-68
2023/12/25 08:19:32;;;;;;;10.25;1.77;;;;;;;;;;5121147;27;20023;-69
2023/12/25 08:21:58;;;;;;;5.78;1.90;;;;;;;;;;5127105;27;20426;-69
2023/12/25 08:24:25;;;;;;;6.65;1.98;;;;;;;;;;5132996;27;20027;-69
2023/12/25 08:26:51;;;;;;;8.55;1.65;;;;;;;;;;5128817;27;20022;-69
2023/12/25 08:29:16;;;;;;;11.18;2.70;;;;;;;;;;5121426;27;20019;-68
2023/12/25 08:31:42;;;;;;;10.77;1.80;;;;;;;;;;5133291;27;20028;-68
2023/12/25 08:34:07;;;;;;;8.77;2.28;;;;;;;;;;5133393;27;20035;-69
2023/12/25 08:36:33;;;;;;;7.13;1.40;;;;;;;;;;5131891;27;20038;-69
2023/12/25 08:38:58;;;;;;;7.57;1.55;;;;;;;;;;5131374;27;20109;-69
2023/12/25 08:41:24;;;;;;;6.38;1.75;;;;;;;;;;5131902;27;20114;-69
2023/12/25 08:43:49;;;;;;;12.00;2.13;;;;;;;;;;5132297;27;20105;-69
2023/12/25 08:46:15;;;;;;;12.73;2.38;;;;;;;;;;5131940;27;20027;-69
2023/12/25 08:48:40;;;;;;;10.07;1.83;;;;;;;;;;5131969;28;20019;-69
2023/12/25 08:51:06;;;;;;;14.57;2.10;;;;;;;;;;5132845;28;20031;-69
2023/12/25 08:53:35;;;;;;;6.53;1.63;;;;;;;;;;5133015;28;20047;-69
2023/12/25 08:56:01;;;;;;;8.15;1.70;;;;;;;;;;5133510;28;20092;-70
2023/12/25 08:58:27;;;;;;;9.45;1.50;;;;;;;;;;5133340;28;20035;-69
2023/12/25 09:00:52;;;;;;;8.13;1.77;;;;;;;;;;5133452;28;20027;-69
2023/12/25 09:03:18;;;;;;;7.47;1.95;;;;;;;;;;5133426;28;20077;-69
2023/12/25 09:05:43;;;;;;;22.80;3.22;;;;;;;;;;5133430;28;20015;-69
2023/12/25 09:08:10;;;;;;;7.85;2.03;;;;;;;;;;5132863;28;20061;-70
2023/12/25 09:10:36;;;;;;;9.48;2.03;;;;;;;;;;5133203;28;20076;-69
2023/12/25 09:13:02;;;;;;;8.65;2.13;;;;;;;;;;5114819;28;20039;-69
2023/12/25 09:15:28;;;;;;;9.93;1.92;;;;;;;;;;5133435;28;20023;-71
2023/12/25 09:17:53;;;;;;;6.75;1.85;;;;;;;;;;5132954;28;20096;-69
2023/12/25 09:20:19;;;;;;;9.15;1.77;;;;;;;;;;5133139;28;20023;-69
2023/12/25 09:22:44;;;;;;;8.40;2.03;;;;;;;;;;5133036;28;20050;-69
2023/12/25 09:25:10;;;;;;;11.48;3.40;;;;;;;;;;5133259;28;20019;-69
2023/12/25 09:27:35;;;;;;;9.70;2.03;;;;;;;;;;5133070;28;20034;-69
2023/12/25 09:30:02;;;;;;;14.98;2.00;;;;;;;;;;5133007;28;20465;-69
2023/12/25 09:32:28;;;;;;;9.77;2.17;;;;;;;;;;5132942;28;20039;-69
2023/12/25 09:34:56;;;;;;;14.35;3.28;;;;;;;;;;5132873;28;20389;-69
2023/12/25 09:37:23;;;;;;;8.90;1.67;;;;;;;;;;5132776;28;20042;-69
2023/12/25 09:39:49;;;;;;;11.85;2.60;;;;;;;;;;5132777;28;20076;-69
2023/12/25 09:42:14;;;;;;;11.85;2.40;;;;;;;;;;5132825;28;20474;-69
2023/12/25 09:44:41;;;;;;;8.73;1.63;;;;;;;;;;5133607;27;20322;-69
2023/12/25 09:47:09;;;;;;;9.45;2.35;;;;;;;;;;5136690;27;20514;-69
2023/12/25 09:49:38;;;;;;;11.80;1.83;;;;;;;;;;5136847;27;20054;-69
2023/12/25 09:52:04;;;;;;;16.85;3.65;;;;;;;;;;5136317;27;20043;-69
2023/12/25 09:54:29;;;;;;;9.32;1.70;;;;;;;;;;5136702;27;20043;-69
2023/12/25 09:57:00;;;;;;;12.73;1.80;;;;;;;;;;5136549;27;20027;-69
2023/12/25 09:59:28;;;;;;;7.07;1.38;;;;;;;;;;5136503;27;20023;-69
2023/12/25 10:01:55;;;;;;;11.15;2.17;;;;;;;;;;5117891;27;20096;-69
2023/12/25 10:04:21;;;;;;;5.25;1.38;;;;;;;;;;5136384;27;20062;-69
2023/12/25 10:06:47;;;;;;;10.02;1.85;;;;;;;;;;5136104;27;20057;-69
2023/12/25 10:09:12;;;;;;;5.32;1.08;;;;;;;;;;5136359;27;20019;-69
2023/12/25 10:11:37;;;;;;;9.45;2.88;;;;;;;;;;5136118;27;20041;-69
2023/12/25 10:14:03;;;;;;;11.00;2.40;;;;;;;;;;5136362;27;20027;-69
2023/12/25 10:16:29;;;;;;;12.95;2.42;;;;;;;;;;5136132;27;20044;-69
2023/12/25 10:18:55;;;;;;;10.30;2.42;;;;;;;;;;5135943;27;20054;-69
2023/12/25 10:21:21;;;;;;;11.93;2.40;;;;;;;;;;5135740;27;20398;-69
2023/12/25 10:23:47;;;;;;;12.85;4.15;;;;;;;;;;5136075;27;20098;-70
2023/12/25 10:26:13;;;;;;;13.75;4.38;;;;;;;;;;5135926;27;20054;-71
2023/12/25 10:28:38;;;;;;;16.73;3.92;;;;;;;;;;5135895;27;20042;-69
2023/12/25 10:31:08;;;;;;;10.70;3.15;;;;;;;;;;5135880;27;20473;-70
2023/12/25 10:33:36;;;;;;;16.35;5.43;;;;;;;;;;5135877;27;20090;-70
2023/12/25 10:36:06;;;;;;;15.40;4.13;;;;;;;;;;5135595;27;20027;-69
2023/12/25 10:38:34;;;;;;;8.45;2.67;;;;;;;;;;5135966;27;20038;-70
2023/12/25 10:41:17;;;;;;;11.10;3.00;;;;;;;;;;5135782;27;20106;-70
2023/12/25 10:43:50;;;;;;;8.15;1.75;;;;;;;;;;5135745;27;20019;-69
2023/12/25 10:46:19;;;;;;;7.78;2.13;;;;;;;;;;5127031;27;20031;-70
2023/12/25 10:48:49;;;;;;;7.38;1.58;;;;;;;;;;5135259;27;20023;-69
2023/12/25 10:51:30;;;;;;;6.32;1.75;;;;;;;;;;5135515;27;20034;-68
2023/12/25 10:54:00;;;;;;;10.10;2.38;;;;;;;;;;5135368;27;20098;-70
2023/12/25 10:56:27;;;;;;;9.05;1.52;;;;;;;;;;5135211;27;20433;-68
2023/12/25 10:58:56;;;;;;;5.63;1.55;;;;;;;;;;5135439;27;20050;-68
2023/12/25 11:01:24;;;;;;;7.22;1.90;;;;;;;;;;5135332;27;20054;-68
2023/12/25 11:03:52;;;;;;;6.45;1.90;;;;;;;;;;5134949;27;20465;-68
2023/12/25 11:06:20;;;;;;;9.00;2.17;;;;;;;;;;5135235;27;20453;-68
2023/12/25 11:08:46;;;;;;;2.90;1.25;;;;;;;;;;5116633;27;20153;-68
2023/12/25 11:11:13;;;;;;;9.60;2.15;;;;;;;;;;5135059;27;20027;-68
2023/12/25 11:13:41;;;;;;;10.85;1.83;;;;;;;;;;5135159;27;20027;-68
2023/12/25 11:16:08;;;;;;;5.68;1.10;;;;;;;;;;5134903;27;20358;-68
2023/12/25 11:18:37;;;;;;;8.32;2.40;;;;;;;;;;5134891;27;20050;-68
2023/12/25 11:21:11;;;;;;;6.50;1.85;;;;;;;;;;5134802;27;20101;-68
2023/12/25 11:23:40;;;;;;;8.52;1.90;;;;;;;;;;5134993;27;20046;-68
2023/12/25 11:26:07;;;;;;;10.73;2.15;;;;;;;;;;5134970;27;20508;-68
2023/12/25 11:28:37;;;;;;;5.97;2.00;;;;;;;;;;5135039;27;20030;-69
2023/12/25 11:31:04;;;;;;;14.55;3.05;;;;;;;;;;5134773;27;20015;-68
2023/12/25 11:33:45;;;;;;;9.48;2.42;;;;;;;;;;5134429;27;20039;-69
2023/12/25 11:36:11;;;;;;;;;;;;;;;;;;5134946;27;20030;-69
2023/12/25 11:38:41;;;;;;;8.80;2.42;;;;;;;;;;5134594;27;19911;-68
2023/12/25 11:41:11;;;;;;;10.38;2.35;;;;;;;;;;5134470;27;20029;-69
2023/12/25 11:43:37;;;;;;;7.65;2.28;;;;;;;;;;5134569;27;20106;-68
2023/12/25 11:46:03;;;;;;;8.60;2.20;;;;;;;;;;5134142;27;20031;-69
2023/12/25 11:48:30;;;;;;;12.52;1.95;;;;;;;;;;5134013;27;20106;-68
2023/12/25 11:51:01;;;;;;;12.05;2.25;;;;;;;;;;5134250;27;20533;-68
2023/12/25 11:53:38;;;;;;;8.02;1.75;;;;;;;;;;5133985;27;20051;-68
2023/12/25 11:56:07;;;;;;;11.30;2.47;;;;;;;;;;5134358;27;20023;-69
2023/12/25 11:58:35;;;;;;;5.45;2.00;;;;;;;;;;5134135;27;20023;-69
2023/12/25 12:01:00;;;;;;;10.40;3.47;;;;;;;;;;5133916;27;20027;-69
2023/12/25 12:03:26;;;;;;;9.25;1.88;;;;;;;;;;5134032;27;20022;-69
2023/12/25 12:05:53;;;;;;;14.32;1.52;;;;;;;;;;5134075;27;20102;-69
2023/12/25 12:08:18;;;;;;;9.20;1.55;;;;;;;;;;5114792;27;20118;-69
2023/12/25 12:10:44;;;;;;;9.88;2.50;;;;;;;;;;5134033;27;20111;-68
2023/12/25 12:13:12;;;;;;;10.48;1.95;;;;;;;;;;5133814;27;20465;-68
2023/12/25 12:15:37;;;;;;;4.43;1.70;;;;;;;;;;5133601;27;20437;-68
2023/12/25 12:18:03;;;;;;;13.25;2.80;;;;;;;;;;5133915;27;20027;-70
2023/12/25 12:20:28;;;;;;;12.32;2.15;;;;;;;;;;5133664;27;20026;-69
2023/12/25 12:22:54;;;;;;;12.38;2.78;;;;;;;;;;5133730;27;20026;-69
2023/12/25 12:25:20;;;;;;;9.02;1.50;;;;;;;;;;5133870;27;20027;-68
2023/12/25 12:27:46;;;;;;;9.85;1.70;;;;;;;;;;5133827;27;20035;-69
2023/12/25 12:30:12;;;;;;;10.75;2.35;;;;;;;;;;5133347;27;20031;-69
2023/12/25 12:32:39;;;;;;;11.52;1.48;;;;;;;;;;5133646;27;20091;-68
2023/12/25 12:35:07;;;;;;;7.47;1.75;;;;;;;;;;5133561;27;20963;-69
2023/12/25 12:37:33;;;;;;;8.02;1.85;;;;;;;;;;5133590;27;20035;-68
2023/12/25 12:40:03;;;;;;;12.73;2.42;;;;;;;;;;5133564;27;20023;-69
2023/12/25 12:42:31;;;;;;;8.85;1.92;;;;;;;;;;5133535;27;20524;-68
2023/12/25 12:44:57;;;;;;;11.75;1.63;;;;;;;;;;5132666;27;20039;-69
2023/12/25 12:47:23;;;;;;;10.50;2.28;;;;;;;;;;5133361;27;20068;-69
2023/12/25 12:49:50;;;;;;;17.08;1.52;;;;;;;;;;5133344;28;20027;-70
2023/12/25 12:52:15;;;;;;;10.07;2.50;;;;;;;;;;5132946;27;20132;-69
2023/12/25 12:54:40;;;;;;;9.02;2.00;;;;;;;;;;5114721;28;20533;-69
2023/12/25 12:57:06;;;;;;;9.68;2.63;;;;;;;;;;5133303;28;20072;-69
2023/12/25 12:59:31;;;;;;;12.40;2.85;;;;;;;;;;5133163;28;20106;-69
2023/12/25 13:01:57;;;;;;;10.98;2.17;;;;;;;;;;5133252;28;20054;-69
2023/12/25 13:04:22;;;;;;;6.53;1.63;;;;;;;;;;5133167;28;20015;-69
2023/12/25 13:06:47;;;;;;;8.45;1.95;;;;;;;;;;5133178;28;20070;-69
2023/12/25 13:09:13;;;;;;;6.63;2.08;;;;;;;;;;5133281;28;20030;-69
2023/12/25 13:11:38;;;;;;;12.35;2.50;;;;;;;;;;5132938;28;20054;-69
2023/12/25 13:14:04;;;;;;;15.10;2.95;;;;;;;;;;5132946;28;20377;-69
2023/12/25 13:16:29;;;;;;;12.15;2.47;;;;;;;;;;5133104;28;20019;-69
2023/12/25 13:18:54;;;;;;;9.45;2.00;;;;;;;;;;5122133;27;20478;-68
2023/12/25 13:21:20;;;;;;;11.25;2.00;;;;;;;;;;5126090;27;20031;-69
2023/12/25 13:23:45;;;;;;;9.30;2.20;;;;;;;;;;5134615;27;20640;-69
2023/12/25 13:26:11;;;;;;;14.45;2.20;;;;;;;;;;5136193;27;20079;-69
2023/12/25 13:28:36;;;;;;;9.90;1.73;;;;;;;;;;5135998;27;20049;-68
2023/12/25 13:31:02;;;;;;;10.10;1.75;;;;;;;;;;5136135;27;20051;-69
2023/12/25 13:33:28;;;;;;;12.63;2.78;;;;;;;;;;5136020;27;20019;-69
2023/12/25 13:35:54;;;;;;;8.77;2.00;;;;;;;;;;5135908;27;20325;-68
2023/12/25 13:38:20;;;;;;;11.05;4.25;;;;;;;;;;5136291;27;20019;-71
2023/12/25 13:40:46;;;;;;;18.17;3.13;;;;;;;;;;5136081;27;20021;-71
2023/12/25 13:43:11;;;;;;;6.25;2.10;;;;;;;;;;5135917;27;20487;-70
2023/12/25 13:45:37;;;;;;;9.50;3.10;;;;;;;;;;5135838;27;20019;-71
2023/12/25 13:48:02;;;;;;;13.35;2.03;;;;;;;;;;5136074;27;20399;-71
2023/12/25 13:50:28;;;;;;;11.88;2.13;;;;;;;;;;5135891;27;20027;-71
2023/12/25 13:52:54;;;;;;;9.00;2.40;;;;;;;;;;5135779;27;20039;-71
2023/12/25 13:55:19;;;;;;;6.55;1.70;;;;;;;;;;5136310;27;20023;-70
2023/12/25 13:57:46;;;;;;;7.40;1.63;;;;;;;;;;5136146;27;20117;-71
2023/12/25 14:00:15;;;;;;;12.82;2.17;;;;;;;;;;5127560;27;20147;-71
2023/12/25 14:02:40;;;;;;;9.55;1.83;;;;;;;;;;5116502;27;20031;-72
2023/12/25 14:05:06;;;;;;;7.78;1.80;;;;;;;;;;5117271;27;20390;-71
2023/12/25 14:07:32;;;;;;;11.43;1.85;;;;;;;;;;5136206;27;20019;-71
2023/12/25 14:09:58;;;;;;;11.07;1.40;;;;;;;;;;5136271;27;20027;-71
2023/12/25 14:12:23;;;;;;;10.05;2.20;;;;;;;;;;5136089;27;20027;-71
2023/12/25 14:14:48;;;;;;;4.65;1.52;;;;;;;;;;5136175;27;20019;-71
2023/12/25 14:17:14;;;;;;;11.90;2.00;;;;;;;;;;5135930;27;20027;-71
2023/12/25 14:19:39;;;;;;;8.65;1.80;;;;;;;;;;5135937;27;20021;-71
2023/12/25 14:22:05;;;;;;;9.60;2.72;;;;;;;;;;5135737;27;20022;-71
2023/12/25 14:24:35;;;;;;;7.55;1.40;;;;;;;;;;5135967;27;20080;-71
2023/12/25 14:27:02;;;;;;;9.60;2.00;;;;;;;;;;5135525;27;20023;-70
2023/12/25 14:29:29;;;;;;;11.00;2.85;;;;;;;;;;5135550;27;20043;-70
2023/12/25 14:31:55;;;;;;;10.70;2.60;;;;;;;;;;5135142;27;20466;-70
2023/12/25 14:34:20;;;;;;;12.00;3.63;;;;;;;;;;5135697;27;20056;-69